Time;durP1;ratioP1;P1;durP2;ratioP2;P2;SDS_P1;SDS_P2;PMS_P1;PMS_P2;Temp;Humidity;BMP_temperature;BMP_pressure;BME280_temperature;BME280_humidity;BME280_pressure;Samples;Min_cycle;Max_cycle;Signal;HPM_P1;HPM_P2
2023/10/02 00:01:10;;;;;;;17.98;9.82;;;;;;;15.35;100.00;101842.22;5030758;28;20053;-75
2023/10/02 00:03:39;;;;;;;17.85;9.82;;;;;;;15.33;100.00;101847.03;5029870;28;20477;-75
2023/10/02 00:06:11;;;;;;;16.30;9.18;;;;;;;15.28;100.00;101844.06;5031620;28;20045;-75
2023/10/02 00:08:40;;;;;;;17.70;9.45;;;;;;;15.21;100.00;101843.22;5032363;28;20098;-75
2023/10/02 00:11:37;;;;;;;18.13;9.00;;;;;;;15.18;100.00;101844.47;5029210;28;20032;-75
2023/10/02 00:14:25;;;;;;;;;;;;;;;15.15;100.00;101844.91;5032197;28;20040;-75
2023/10/02 00:17:00;;;;;;;16.58;9.02;;;;;;;15.06;100.00;101844.22;5030523;28;20384;-75
2023/10/02 00:19:29;;;;;;;18.73;9.32;;;;;;;14.97;100.00;101845.44;5028231;28;20021;-75
2023/10/02 00:22:05;;;;;;;17.15;8.98;;;;;;;14.89;100.00;101849.16;5030457;28;20057;-75
2023/10/02 00:24:35;;;;;;;;;;;;;;;14.92;100.00;101851.47;5116091;23;20052;-75
2023/10/02 00:27:03;;;;;;;17.02;9.70;;;;;;;14.94;100.00;101851.25;5097226;28;19959;-74
2023/10/02 00:29:29;;;;;;;17.75;10.05;;;;;;;14.90;100.00;101845.41;5080010;28;20088;-75
2023/10/02 00:31:55;;;;;;;17.65;9.52;;;;;;;14.88;100.00;101839.34;5095144;28;20169;-75
2023/10/02 00:34:30;;;;;;;18.13;9.23;;;;;;;14.95;100.00;101839.38;5089346;28;20036;-75
2023/10/02 00:37:06;;;;;;;16.75;9.02;;;;;;;14.89;100.00;101841.03;5090362;28;20051;-75
2023/10/02 00:39:34;;;;;;;17.50;9.23;;;;;;;14.97;100.00;101838.16;5072442;28;20035;-75
2023/10/02 00:44:54;;;;;;;16.35;9.10;;;;;;;14.97;100.00;101840.88;5084301;28;20124;-75
2023/10/02 00:47:45;;;;;;;16.52;9.35;;;;;;;14.96;100.00;101841.03;5089057;28;20056;-75
2023/10/02 00:50:18;;;;;;;18.38;9.43;;;;;;;14.87;100.00;101840.38;5092115;28;20028;-75
2023/10/02 00:52:49;;;;;;;18.38;9.63;;;;;;;14.83;100.00;101833.69;5092614;28;20767;-75
2023/10/02 00:55:19;;;;;;;16.13;8.65;;;;;;;14.84;100.00;101838.91;5086026;28;20032;-75
2023/10/02 00:57:45;;;;;;;18.23;9.27;;;;;;;14.82;100.00;101832.03;5087752;28;20020;-75
2023/10/02 01:00:48;;;;;;;17.10;8.70;;;;;;;14.89;100.00;101832.06;5088022;28;20510;-75
2023/10/02 01:03:08;;;;;;;16.10;9.13;;;;;;;14.87;100.00;101834.13;5075493;28;20055;-75
2023/10/02 01:05:56;;;;;;;17.48;9.50;;;;;;;14.85;100.00;101824.31;5089776;28;20024;-75
2023/10/02 01:08:25;;;;;;;15.82;9.07;;;;;;;14.76;100.00;101832.81;5090186;28;20051;-75
2023/10/02 01:10:58;;;;;;;17.10;8.90;;;;;;;14.81;100.00;101835.78;5096655;28;20037;-75
2023/10/02 01:13:32;;;;;;;16.05;8.95;;;;;;;14.83;100.00;101834.53;5100335;28;20028;-74
2023/10/02 01:16:13;;;;;;;15.68;8.45;;;;;;;14.84;100.00;101836.22;5090646;28;20047;-75
2023/10/02 01:18:39;;;;;;;16.92;9.27;;;;;;;14.79;100.00;101837.84;5086827;28;20538;-75
2023/10/02 01:21:11;;;;;;;16.17;8.98;;;;;;;14.78;100.00;101833.47;5087534;28;20035;-75
2023/10/02 01:24:07;;;;;;;17.48;9.18;;;;;;;14.74;100.00;101834.91;5088982;28;20012;-75
2023/10/02 01:26:40;;;;;;;14.45;8.60;;;;;;;14.78;100.00;101830.75;5085235;28;20103;-75
2023/10/02 01:29:06;;;;;;;16.35;9.35;;;;;;;14.78;100.00;101828.03;5085956;28;20108;-75
2023/10/02 01:31:51;;;;;;;19.58;9.85;;;;;;;14.70;100.00;101827.16;5087950;28;20114;-75
2023/10/02 01:40:28;;;;;;;16.83;8.93;;;;;;;14.59;100.00;101822.28;5088133;28;20126;-75
2023/10/02 01:42:41;;;;;;;15.93;9.60;;;;;;;14.61;100.00;101828.34;5083297;28;20531;-75
2023/10/02 01:45:08;;;;;;;17.08;9.15;;;;;;;14.60;100.00;101823.97;5053002;28;20062;-75
2023/10/02 01:47:41;;;;;;;14.77;8.27;;;;;;;14.58;100.00;101830.59;5089199;28;20076;-75
2023/10/02 01:50:06;;;;;;;15.15;8.95;;;;;;;14.53;100.00;101825.78;5087365;28;20081;-75
2023/10/02 01:52:32;;;;;;;15.27;8.85;;;;;;;14.56;100.00;101822.69;5089620;28;20032;-75
2023/10/02 01:55:01;;;;;;;16.63;9.57;;;;;;;14.50;100.00;101831.59;5085663;28;20375;-75
2023/10/02 01:57:29;;;;;;;14.75;9.23;;;;;;;14.43;100.00;101823.44;5086422;28;21827;-75
2023/10/02 02:00:13;;;;;;;16.08;8.57;;;;;;;14.44;100.00;101827.81;5085500;28;20032;-75
2023/10/02 02:02:41;;;;;;;17.08;9.07;;;;;;;14.46;100.00;101827.63;5089719;28;20036;-75
2023/10/02 02:05:11;;;;;;;17.40;9.40;;;;;;;14.42;100.00;101821.75;5088232;28;20020;-75
2023/10/02 02:07:36;;;;;;;15.65;8.63;;;;;;;14.47;100.00;101818.47;5087745;28;20028;-75
2023/10/02 02:10:02;;;;;;;14.85;8.68;;;;;;;14.45;100.00;101817.84;5082403;28;20121;-75
2023/10/02 02:12:42;;;;;;;15.20;8.68;;;;;;;14.44;100.00;101816.16;5085071;28;20040;-75
2023/10/02 02:15:09;;;;;;;15.18;8.68;;;;;;;14.49;100.00;101824.50;5093755;28;20032;-74
2023/10/02 02:17:34;;;;;;;15.25;8.90;;;;;;;14.53;100.00;101823.06;5092669;28;20036;-77
2023/10/02 02:20:10;;;;;;;16.55;8.98;;;;;;;14.52;100.00;101816.84;5095680;28;20020;-76
2023/10/02 02:22:37;;;;;;;16.00;8.95;;;;;;;14.49;100.00;101824.50;5090702;28;20028;-75
2023/10/02 02:25:04;;;;;;;18.23;8.77;;;;;;;14.46;100.00;101825.75;5086317;28;20142;-77
2023/10/02 02:27:29;;;;;;;15.52;8.48;;;;;;;14.46;100.00;101822.22;5106998;28;20035;-75
2023/10/02 02:29:57;;;;;;;16.60;9.13;;;;;;;14.52;100.00;101821.41;5114996;28;20036;-75
2023/10/02 02:32:36;;;;;;;14.32;8.43;;;;;;;14.55;100.00;101821.84;5090533;28;20019;-75
2023/10/02 02:35:15;;;;;;;16.10;9.25;;;;;;;14.55;100.00;101821.00;5113980;28;20035;-75
2023/10/02 02:37:41;;;;;;;17.50;8.57;;;;;;;14.59;100.00;101811.44;5113499;28;20034;-75
2023/10/02 02:40:22;;;;;;;17.20;8.43;;;;;;;14.57;100.00;101808.09;5104854;28;20028;-75
2023/10/02 02:42:51;;;;;;;16.55;8.90;;;;;;;14.57;100.00;101810.81;5091304;28;20038;-75
2023/10/02 02:45:31;;;;;;;17.55;8.52;;;;;;;14.55;100.00;101811.03;5101871;28;20040;-75
2023/10/02 02:48:07;;;;;;;15.85;8.55;;;;;;;14.55;100.00;101807.47;5113202;28;20031;-75
2023/10/02 02:50:33;;;;;;;;;;;;;;;14.52;100.00;101807.84;5116403;28;20030;-74
2023/10/02 02:53:21;;;;;;;15.73;8.63;;;;;;;14.51;100.00;101806.19;5107720;28;19919;-74
2023/10/02 02:56:38;;;;;;;15.48;8.30;;;;;;;14.49;100.00;101805.53;5109001;28;20055;-75
2023/10/02 02:58:56;;;;;;;12.93;8.18;;;;;;;14.50;100.00;101802.66;5108898;28;20035;-75
2023/10/02 03:01:22;;;;;;;16.30;8.70;;;;;;;14.52;100.00;101802.44;5107762;28;20036;-75
2023/10/02 03:03:55;;;;;;;16.77;8.73;;;;;;;14.49;100.00;101805.53;5114755;28;20520;-75
2023/10/02 03:06:23;;;;;;;17.63;8.90;;;;;;;14.49;100.00;101800.13;5112291;28;20028;-75
2023/10/02 03:08:51;;;;;;;14.20;8.50;;;;;;;14.53;100.00;101799.53;5113022;28;20026;-75
2023/10/02 03:11:21;;;;;;;15.98;8.60;;;;;;;14.55;100.00;101804.75;5105843;28;20133;-75
2023/10/02 03:13:47;;;;;;;14.80;8.02;;;;;;;14.51;100.00;101798.06;5113751;28;20023;-75
2023/10/02 03:16:19;;;;;;;15.18;8.75;;;;;;;14.53;100.00;101790.56;5113012;28;20055;-75
2023/10/02 03:18:54;;;;;;;13.65;8.38;;;;;;;14.57;100.00;101789.13;5115919;28;20397;-74
2023/10/02 03:21:24;;;;;;;16.73;8.65;;;;;;;14.64;100.00;101786.44;5114471;28;20027;-74
2023/10/02 03:23:54;;;;;;;15.90;8.70;;;;;;;14.64;100.00;101781.88;5110301;28;20059;-74
2023/10/02 03:26:26;;;;;;;17.95;9.48;;;;;;;14.56;100.00;101782.84;5112818;28;20032;-75
2023/10/02 03:29:03;;;;;;;14.77;8.32;;;;;;;14.64;100.00;101775.63;5113153;28;20030;-75
2023/10/02 03:31:51;;;;;;;14.13;8.68;;;;;;;14.58;100.00;101774.53;5106170;28;20125;-74
2023/10/02 03:34:29;;;;;;;15.82;8.50;;;;;;;14.65;100.00;101767.25;5112777;28;20471;-76
2023/10/02 03:37:08;;;;;;;16.00;8.93;;;;;;;14.61;100.00;101770.59;5107926;28;20513;-74
2023/10/02 03:40:00;;;;;;;15.77;8.55;;;;;;;14.67;100.00;101769.78;5105871;28;20038;-77
2023/10/02 03:42:30;;;;;;;14.10;7.85;;;;;;;14.75;100.00;101756.09;5112923;28;20023;-74
2023/10/02 03:44:59;;;;;;;15.30;8.45;;;;;;;14.74;100.00;101764.44;5111284;28;20031;-75
2023/10/02 03:47:33;;;;;;;14.35;7.85;;;;;;;14.75;100.00;101766.09;5112777;28;20047;-75
2023/10/02 03:50:01;;;;;;;16.30;8.48;;;;;;;14.85;100.00;101761.13;5112451;28;20032;-75
2023/10/02 03:52:29;;;;;;;15.10;8.15;;;;;;;14.91;100.00;101757.63;5112259;28;20537;-75
2023/10/02 03:54:55;;;;;;;15.45;8.02;;;;;;;14.96;100.00;101754.28;5111031;28;20033;-75
2023/10/02 04:02:45;;;;;;;14.55;8.02;;;;;;;14.94;100.00;101756.34;5105599;28;20046;-75
2023/10/02 04:05:12;;;;;;;13.80;7.50;;;;;;;15.00;100.00;101758.25;5112672;28;20027;-75
2023/10/02 04:07:37;;;;;;;13.75;7.78;;;;;;;14.98;100.00;101755.78;5115679;28;20065;-76
2023/10/02 04:10:07;;;;;;;14.43;7.85;;;;;;;14.96;100.00;101757.84;5112737;28;20027;-75
2023/10/02 04:12:50;;;;;;;13.60;7.40;;;;;;;14.94;100.00;101759.91;5112635;28;20411;-76
2023/10/02 04:15:16;;;;;;;15.57;8.18;;;;;;;14.97;100.00;101754.09;5112220;28;20027;-75
2023/10/02 04:17:49;;;;;;;14.93;8.23;;;;;;;14.95;100.00;101760.75;5111743;28;20402;-75
2023/10/02 04:20:30;;;;;;;15.25;8.05;;;;;;;14.90;100.00;101750.50;5107587;28;20020;-75
2023/10/02 04:22:55;;;;;;;11.93;7.05;;;;;;;14.91;100.00;101749.47;5111264;28;20031;-75
2023/10/02 04:25:24;;;;;;;14.88;8.23;;;;;;;14.90;100.00;101752.41;5109340;28;20506;-75
2023/10/02 04:32:52;;;;;;;12.98;7.80;;;;;;;14.82;100.00;101756.13;5111855;28;20050;-75
2023/10/02 04:38:08;;;;;;;13.45;7.75;;;;;;;14.69;100.00;101757.72;5112919;28;20046;-75
2023/10/02 04:40:51;;;;;;;14.73;7.90;;;;;;;14.71;100.00;101752.13;5107290;28;20031;-75
2023/10/02 04:43:26;;;;;;;13.77;8.00;;;;;;;14.69;100.00;101746.88;5116724;28;20035;-75
2023/10/02 04:45:53;;;;;;;14.32;8.10;;;;;;;14.66;100.00;101749.97;5112360;28;20027;-75
2023/10/02 04:48:26;;;;;;;15.30;7.95;;;;;;;14.67;100.00;101753.53;5111852;28;20101;-75
2023/10/02 04:50:56;;;;;;;13.90;7.93;;;;;;;14.68;100.00;101763.38;5111863;28;20038;-75
2023/10/02 04:53:22;;;;;;;13.48;7.97;;;;;;;14.63;100.00;101766.66;5104778;28;20483;-75
2023/10/02 04:56:01;;;;;;;17.58;8.40;;;;;;;14.60;100.00;101761.63;5110496;28;20477;-75
2023/10/02 04:58:28;;;;;;;13.30;8.30;;;;;;;14.56;100.00;101763.06;5107990;28;20494;-75
2023/10/02 05:03:31;;;;;;;16.10;8.55;;;;;;;14.53;100.00;101760.75;5107872;28;20069;-75
2023/10/02 05:05:58;;;;;;;15.02;8.45;;;;;;;14.52;100.00;101757.22;5108228;28;20097;-75
2023/10/02 05:11:06;;;;;;;11.70;7.53;;;;;;;14.48;100.00;101766.78;5111982;28;20044;-76
2023/10/02 05:13:53;;;;;;;15.88;8.35;;;;;;;14.46;100.00;101765.31;5094360;28;20481;-75
2023/10/02 05:16:34;;;;;;;15.55;8.05;;;;;;;14.45;100.00;101772.59;5106954;28;20050;-75
2023/10/02 05:19:14;;;;;;;14.70;7.90;;;;;;;14.43;100.00;101771.13;5108925;28;20020;-75
2023/10/02 05:21:39;;;;;;;18.00;8.63;;;;;;;14.38;100.00;101769.84;5111844;28;20047;-75
2023/10/02 05:24:11;;;;;;;12.80;7.75;;;;;;;14.43;100.00;101773.84;5110657;28;20051;-75
2023/10/02 05:26:39;;;;;;;14.43;7.72;;;;;;;14.47;100.00;101767.00;5112466;28;20023;-75
2023/10/02 05:29:05;;;;;;;17.05;8.43;;;;;;;14.47;100.00;101769.72;5108339;28;20055;-76
2023/10/02 05:31:35;;;;;;;14.02;7.93;;;;;;;14.44;100.00;101764.69;5111953;28;20028;-75
2023/10/02 05:34:24;;;;;;;15.05;8.10;;;;;;;14.47;100.00;101767.81;5106080;28;20028;-75
2023/10/02 05:37:11;;;;;;;12.98;7.75;;;;;;;14.48;100.00;101763.22;5111256;28;20035;-76
2023/10/02 05:39:40;;;;;;;14.57;8.30;;;;;;;14.50;100.00;101774.69;5105952;28;20414;-75
2023/10/02 05:42:13;;;;;;;16.30;8.40;;;;;;;14.49;100.00;101770.31;5107703;28;20066;-75
2023/10/02 05:44:38;;;;;;;15.48;8.23;;;;;;;14.46;100.00;101759.91;5111048;28;20019;-75
2023/10/02 05:47:07;;;;;;;15.30;8.50;;;;;;;14.49;100.00;101763.03;5108825;28;20035;-75
2023/10/02 05:49:47;;;;;;;13.65;7.90;;;;;;;14.48;100.00;101763.22;5113084;28;20055;-75
2023/10/02 05:52:19;;;;;;;14.88;8.43;;;;;;;14.51;100.00;101760.13;5116425;28;20027;-76
2023/10/02 05:54:53;;;;;;;15.23;8.48;;;;;;;14.55;100.00;101767.66;5111354;28;20031;-75
2023/10/02 05:57:22;;;;;;;15.55;8.15;;;;;;;14.64;100.00;101773.75;5117720;28;20051;-76
2023/10/02 05:59:51;;;;;;;14.07;7.75;;;;;;;14.65;100.00;101777.28;5111832;28;20534;-76
2023/10/02 06:02:24;;;;;;;16.08;8.73;;;;;;;14.70;100.00;101767.53;5109803;28;20068;-76
2023/10/02 06:04:53;;;;;;;15.13;8.13;;;;;;;14.76;100.00;101774.03;5107094;28;20512;-76
2023/10/02 06:07:43;;;;;;;14.05;7.63;;;;;;;14.90;100.00;101780.34;5110961;28;20027;-75
2023/10/02 06:10:27;;;;;;;14.40;8.13;;;;;;;14.93;100.00;101779.09;5095134;28;20039;-76
2023/10/02 06:13:05;;;;;;;15.00;8.32;;;;;;;15.00;100.00;101777.25;5094689;28;20039;-76
2023/10/02 06:15:43;;;;;;;14.82;7.82;;;;;;;15.17;100.00;101777.72;5103684;28;20032;-76
2023/10/02 06:18:10;;;;;;;15.10;7.97;;;;;;;15.25;100.00;101780.22;5107617;28;20475;-74
2023/10/02 06:20:36;;;;;;;15.90;7.80;;;;;;;15.35;100.00;101781.72;5110828;28;20046;-75
2023/10/02 06:23:19;;;;;;;14.95;8.52;;;;;;;15.49;99.56;101783.41;5109685;28;20391;-75
2023/10/02 06:25:46;;;;;;;16.05;8.18;;;;;;;15.84;97.04;101788.66;5101035;28;20169;-75
2023/10/02 06:28:25;;;;;;;16.48;8.68;;;;;;;16.18;94.66;101786.75;5110590;28;20527;-75
2023/10/02 06:30:51;;;;;;;16.10;8.38;;;;;;;16.49;92.31;101790.66;5109437;28;20490;-74
2023/10/02 06:33:17;;;;;;;16.90;8.25;;;;;;;16.58;91.54;101795.88;5111189;28;20076;-76
2023/10/02 06:35:45;;;;;;;15.75;8.45;;;;;;;16.73;90.04;101790.16;5108800;28;20020;-77
2023/10/02 06:38:17;;;;;;;16.42;9.02;;;;;;;16.74;89.25;101800.84;5103546;28;20032;-74
2023/10/02 06:40:57;;;;;;;16.25;8.45;;;;;;;16.68;89.35;101796.25;5111370;28;20015;-75
2023/10/02 06:43:29;;;;;;;19.25;8.98;;;;;;;16.96;88.28;101792.38;5109924;28;20035;-75
2023/10/02 06:46:15;;;;;;;19.48;9.10;;;;;;;17.30;86.24;101789.47;5110201;28;20044;-75
2023/10/02 06:48:45;;;;;;;16.83;9.00;;;;;;;17.65;84.05;101787.13;5103583;28;20020;-75
2023/10/02 06:51:14;;;;;;;18.15;8.70;;;;;;;17.97;82.65;101791.69;5109343;28;20032;-75
2023/10/02 06:53:42;;;;;;;15.52;8.57;;;;;;;18.14;80.93;101797.44;5110845;28;20023;-75
2023/10/02 06:56:10;;;;;;;15.85;8.75;;;;;;;18.37;79.80;101801.38;5110604;28;20034;-75
2023/10/02 06:58:48;;;;;;;17.38;9.10;;;;;;;18.71;77.93;101807.31;5112078;28;20032;-75
2023/10/02 07:01:14;;;;;;;17.33;9.23;;;;;;;18.83;77.25;101808.22;5097617;28;20020;-75
2023/10/02 07:03:40;;;;;;;17.90;9.55;;;;;;;19.19;75.25;101803.78;5115129;28;20111;-75
2023/10/02 07:06:09;;;;;;;18.15;9.75;;;;;;;19.50;74.29;101803.75;5112993;28;20490;-76
2023/10/02 07:08:36;;;;;;;17.45;9.55;;;;;;;19.65;73.24;101811.50;5112020;28;20513;-75
2023/10/02 07:11:10;;;;;;;17.17;9.73;;;;;;;19.75;72.13;101819.97;5114205;28;20405;-75
2023/10/02 07:13:50;;;;;;;19.00;9.48;;;;;;;20.09;71.50;101809.31;5112405;28;20058;-75
2023/10/02 07:16:17;;;;;;;18.40;9.45;;;;;;;20.75;69.02;101811.00;5114179;28;20032;-75
2023/10/02 07:18:49;;;;;;;19.55;10.65;;;;;;;21.07;66.96;101816.06;5113848;28;20038;-75
2023/10/02 07:21:21;;;;;;;18.30;9.95;;;;;;;21.26;66.77;101808.47;5113135;28;20035;-75
2023/10/02 07:23:46;;;;;;;18.42;9.60;;;;;;;21.66;65.24;101812.19;5118059;28;20031;-75
2023/10/02 07:26:45;;;;;;;18.05;10.00;;;;;;;22.22;63.49;101817.75;5111834;27;20047;-75
2023/10/02 07:29:07;;;;;;;18.73;10.15;;;;;;;22.43;62.41;101809.00;5105923;28;20032;-75
2023/10/02 07:31:34;;;;;;;17.08;10.13;;;;;;;22.98;60.20;101820.91;5110527;28;20421;-76
2023/10/02 07:34:00;;;;;;;16.77;9.77;;;;;;;23.40;58.07;101819.44;5111870;28;20114;-76
2023/10/02 07:36:32;;;;;;;20.15;10.32;;;;;;;23.37;57.47;101815.31;5113820;28;20034;-75
2023/10/02 07:39:00;;;;;;;17.90;9.40;;;;;;;23.46;59.04;101810.16;5112025;28;20080;-75
2023/10/02 07:41:28;;;;;;;16.45;9.13;;;;;;;23.98;57.72;101805.94;5105898;28;20031;-75
2023/10/02 07:43:55;;;;;;;18.05;10.68;;;;;;;24.43;54.75;101794.63;5113088;28;20038;-75
2023/10/02 07:46:23;;;;;;;19.60;10.55;;;;;;;24.45;54.96;101803.47;5112495;28;20045;-75
2023/10/02 07:49:00;;;;;;;19.58;10.43;;;;;;;24.17;55.23;101809.09;5113567;28;20039;-75
2023/10/02 07:51:36;;;;;;;18.17;10.18;;;;;;;24.06;55.99;101808.19;5094038;28;20032;-76
2023/10/02 07:54:07;;;;;;;;;;;;;;;24.38;54.72;101811.97;5105183;28;20027;-76
2023/10/02 07:56:33;;;;;;;15.98;9.48;;;;;;;24.32;54.86;101813.00;5088594;28;19916;-75
2023/10/02 07:59:01;;;;;;;17.55;9.98;;;;;;;24.18;55.43;101809.94;5112173;28;20016;-75
2023/10/02 08:01:28;;;;;;;18.30;10.15;;;;;;;24.47;54.43;101810.34;5105028;28;20051;-76
2023/10/02 08:03:56;;;;;;;20.20;10.15;;;;;;;24.77;53.32;101811.63;5111652;28;20036;-75
2023/10/02 08:11:42;;;;;;;17.45;9.63;;;;;;;25.05;53.13;101797.66;5110424;28;20623;-75
2023/10/02 08:14:34;;;;;;;17.42;9.85;;;;;;;25.05;52.24;101805.91;5111113;28;20036;-76
2023/10/02 08:17:18;;;;;;;;;;;;;;;25.09;52.53;101807.00;5111510;28;20556;-76
2023/10/02 08:19:54;;;;;;;20.63;11.10;;;;;;;25.15;52.52;101803.16;5113195;28;19919;-76
2023/10/02 08:22:23;;;;;;;19.40;10.07;;;;;;;24.97;53.05;101788.81;5110826;28;20509;-76
2023/10/02 08:24:52;;;;;;;19.67;10.18;;;;;;;24.22;55.30;101800.03;5111192;28;20075;-76
2023/10/02 08:27:18;;;;;;;18.50;9.82;;;;;;;23.77;55.94;101793.91;5109474;28;20032;-76
2023/10/02 08:29:44;;;;;;;20.77;10.77;;;;;;;23.45;57.53;101801.09;5106490;28;20042;-76
2023/10/02 08:32:10;;;;;;;15.45;9.80;;;;;;;23.26;59.32;101795.16;5112566;28;20019;-75
2023/10/02 08:34:36;;;;;;;19.83;10.05;;;;;;;23.33;59.38;101797.69;5113529;28;20068;-76
2023/10/02 08:37:05;;;;;;;21.90;10.35;;;;;;;23.16;60.48;101800.53;5110396;28;20471;-76
2023/10/02 08:39:36;;;;;;;21.80;10.82;;;;;;;22.82;60.54;101798.78;5113693;28;20024;-75
2023/10/02 08:42:08;;;;;;;20.05;10.68;;;;;;;22.38;62.61;101802.31;5112746;28;20487;-75
2023/10/02 08:44:38;;;;;;;18.38;9.82;;;;;;;21.90;63.51;101796.41;5112030;28;20069;-76
2023/10/02 08:47:04;;;;;;;19.10;10.07;;;;;;;22.04;64.27;101796.91;5112103;28;20020;-76
2023/10/02 08:49:30;;;;;;;21.85;10.55;;;;;;;22.21;63.21;101802.38;5112147;28;20055;-76
2023/10/02 08:51:56;;;;;;;20.73;9.77;;;;;;;22.10;64.56;101795.91;5103481;28;20075;-76
2023/10/02 08:54:27;;;;;;;18.55;10.18;;;;;;;23.04;60.33;101799.81;5113431;28;20490;-75
2023/10/02 08:57:09;;;;;;;19.73;9.98;;;;;;;23.21;59.95;101808.00;5117514;28;20030;-75
2023/10/02 08:59:41;;;;;;;20.23;10.02;;;;;;;22.72;61.12;101804.16;5110661;28;20055;-75
2023/10/02 09:02:16;;;;;;;18.83;9.85;;;;;;;22.36;62.52;101798.16;5111884;28;20023;-75
2023/10/02 09:04:57;;;;;;;18.38;9.80;;;;;;;22.10;63.73;101792.31;5091857;28;20114;-75
2023/10/02 09:08:27;;;;;;;19.02;10.13;;;;;;;22.27;62.98;101790.38;5095291;28;20020;-75
2023/10/02 09:10:24;;;;;;;18.05;9.65;;;;;;;22.48;63.30;101798.91;5097988;28;20032;-76
2023/10/02 09:13:13;;;;;;;18.65;9.77;;;;;;;22.88;61.32;101804.34;5099641;28;20357;-75
2023/10/02 09:15:44;;;;;;;21.45;10.05;;;;;;;23.86;58.79;101808.84;5107900;28;20038;-76
2023/10/02 09:18:22;;;;;;;19.15;9.30;;;;;;;23.83;57.57;101809.38;5113291;28;20023;-76
2023/10/02 09:20:53;;;;;;;24.02;10.45;;;;;;;24.07;56.76;101804.34;5106378;28;20416;-76
2023/10/02 09:23:27;;;;;;;18.83;10.05;;;;;;;24.46;56.58;101797.66;5111158;28;20433;-75
2023/10/02 09:26:16;;;;;;;19.60;10.25;;;;;;;23.84;57.90;101807.44;5112643;27;20047;-75
2023/10/02 09:28:53;;;;;;;19.75;9.93;;;;;;;23.98;58.77;101800.44;5107786;28;20115;-77
2023/10/02 09:31:24;;;;;;;18.00;9.95;;;;;;;23.87;58.08;101799.50;5101516;28;20032;-77
2023/10/02 09:33:49;;;;;;;18.08;9.80;;;;;;;23.67;58.69;101797.41;5111003;28;20044;-75
2023/10/02 09:36:15;;;;;;;18.27;10.30;;;;;;;23.52;60.19;101789.91;5111269;28;20028;-75
2023/10/02 09:38:42;;;;;;;19.85;10.18;;;;;;;23.62;59.25;101791.91;5111129;28;20356;-75
2023/10/02 09:41:15;;;;;;;18.17;10.13;;;;;;;22.81;61.76;101794.38;5108247;28;20069;-75
2023/10/02 09:43:41;;;;;;;20.67;10.55;;;;;;;22.96;61.87;101781.88;5110141;28;20031;-75
2023/10/02 09:46:15;;;;;;;20.80;10.38;;;;;;;22.88;62.39;101796.09;5111389;28;20489;-75
2023/10/02 09:49:10;;;;;;;19.55;9.93;;;;;;;23.14;61.57;101787.03;5106683;28;20031;-74
2023/10/02 09:52:15;;;;;;;21.42;10.80;;;;;;;22.95;61.99;101778.31;5102978;28;20069;-75
2023/10/02 09:54:49;;;;;;;22.42;10.65;;;;;;;22.64;63.95;101771.66;5080000;28;20039;-75
2023/10/02 09:57:25;;;;;;;20.05;10.27;;;;;;;22.49;64.57;101780.53;5093037;28;20023;-75
2023/10/02 09:59:54;;;;;;;20.75;9.95;;;;;;;22.40;64.95;101786.44;5085276;28;20019;-75
2023/10/02 10:07:51;;;;;;;19.48;10.10;;;;;;;23.68;61.49;101774.34;5099619;28;20137;-75
2023/10/02 10:10:57;;;;;;;19.58;10.27;;;;;;;24.12;59.68;101772.47;5104997;28;20111;-75
2023/10/02 10:13:32;;;;;;;21.20;10.97;;;;;;;23.84;59.89;101763.44;5110936;28;20032;-75
2023/10/02 10:16:18;;;;;;;17.55;9.77;;;;;;;24.29;59.63;101762.09;5105570;28;20312;-75
2023/10/02 10:25:22;;;;;;;18.85;10.13;;;;;;;23.92;60.23;101774.78;5098878;28;20072;-75
2023/10/02 10:27:55;;;;;;;21.92;10.82;;;;;;;23.94;59.54;101771.78;5110211;28;20095;-75
2023/10/02 10:30:33;;;;;;;21.58;11.18;;;;;;;23.90;60.16;101767.91;5103911;28;20036;-75
2023/10/02 10:35:41;;;;;;;20.95;10.80;;;;;;;24.16;60.23;101768.09;5108295;28;20031;-76
2023/10/02 10:38:41;;;;;;;23.80;10.95;;;;;;;24.16;59.99;101773.59;5113761;28;20410;-76
2023/10/02 10:41:31;;;;;;;19.75;10.63;;;;;;;24.02;61.85;101778.75;5114805;28;20176;-75
2023/10/02 10:43:56;;;;;;;22.60;11.38;;;;;;;23.90;61.23;101770.66;5107919;28;20028;-75
2023/10/02 10:46:29;;;;;;;23.05;11.00;;;;;;;23.76;61.98;101757.38;5114422;28;20027;-75
2023/10/02 10:49:15;;;;;;;21.13;11.07;;;;;;;23.87;61.29;101743.69;5115614;28;20052;-75
2023/10/02 10:51:41;;;;;;;17.95;10.93;;;;;;;24.71;58.43;101760.38;5097159;28;20027;-75
2023/10/02 10:54:19;;;;;;;18.85;9.63;;;;;;;25.40;56.22;101755.50;5089767;28;20074;-75
2023/10/02 10:56:56;;;;;;;18.20;10.07;;;;;;;25.28;56.73;101755.78;5115139;28;20035;-75
2023/10/02 10:59:32;;;;;;;19.45;10.63;;;;;;;25.58;56.09;101748.66;5086643;28;20107;-75
2023/10/02 11:02:12;;;;;;;19.92;9.65;;;;;;;26.91;50.86;101756.78;5115278;28;20424;-75
2023/10/02 11:04:50;;;;;;;19.75;10.27;;;;;;;27.42;49.85;101762.19;5113327;28;20091;-76
2023/10/02 11:07:19;;;;;;;17.48;10.13;;;;;;;26.91;51.13;101765.06;5114093;28;20413;-75
2023/10/02 11:10:20;;;;;;;22.73;10.48;;;;;;;27.43;49.90;101764.69;5106865;28;20066;-75
2023/10/02 11:12:56;;;;;;;18.95;10.57;;;;;;;26.85;51.41;101752.41;5111046;28;20053;-75
2023/10/02 11:18:18;;;;;;;19.08;10.43;;;;;;;28.23;48.02;101750.63;5115052;28;20062;-75
2023/10/02 11:20:49;;;;;;;17.70;10.43;;;;;;;28.08;48.04;101749.69;5094940;28;20031;-76
2023/10/02 11:23:46;;;;;;;19.50;10.98;;;;;;;28.02;47.44;101748.06;5107264;28;20558;-76
2023/10/02 11:26:15;;;;;;;17.13;10.20;;;;;;;28.00;47.60;101747.53;5112758;28;20084;-75
2023/10/02 11:28:57;;;;;;;22.43;10.87;;;;;;;27.15;50.41;101744.19;5111893;28;20545;-76
2023/10/02 11:31:45;;;;;;;17.98;10.35;;;;;;;27.81;49.28;101741.94;5113777;28;20289;-75
2023/10/02 11:34:14;;;;;;;18.83;10.38;;;;;;;28.14;48.08;101751.31;5111024;28;20487;-75
2023/10/02 11:36:47;;;;;;;19.98;11.02;;;;;;;28.03;47.97;101737.84;5112451;28;20028;-75
2023/10/02 11:39:27;;;;;;;20.70;10.32;;;;;;;27.73;48.86;101728.75;5112216;28;20023;-75
2023/10/02 11:41:52;;;;;;;17.80;10.75;;;;;;;27.27;50.26;101732.75;5111893;28;20036;-75
2023/10/02 11:44:18;;;;;;;16.70;9.90;;;;;;;26.86;52.30;101720.06;5111934;28;20073;-74
2023/10/02 11:46:43;;;;;;;20.33;10.70;;;;;;;26.23;54.18;101725.06;5111024;28;20419;-75
2023/10/02 11:49:10;;;;;;;20.08;10.65;;;;;;;26.41;53.57;101718.09;5112641;28;20031;-75
2023/10/02 11:51:36;;;;;;;18.13;10.02;;;;;;;26.21;53.70;101715.41;5110949;28;20023;-75
2023/10/02 11:54:09;;;;;;;19.58;10.77;;;;;;;26.02;53.88;101721.50;5112872;28;20031;-75
2023/10/02 11:56:35;;;;;;;21.48;10.27;;;;;;;25.79;54.94;101717.44;5109615;28;20107;-74
2023/10/02 11:59:02;;;;;;;20.40;10.43;;;;;;;25.73;55.91;101717.44;5113804;28;20032;-74
2023/10/02 12:01:27;;;;;;;18.50;10.18;;;;;;;25.72;55.82;101713.03;5113281;28;20036;-74
2023/10/02 12:03:59;;;;;;;17.58;10.63;;;;;;;25.62;55.47;101704.78;5113263;28;20106;-75
2023/10/02 12:06:24;;;;;;;21.08;11.13;;;;;;;25.29;57.57;101696.00;5094077;28;20027;-75
2023/10/02 12:08:50;;;;;;;20.83;11.00;;;;;;;25.37;57.61;101689.09;5113450;28;20055;-75
2023/10/02 12:11:16;;;;;;;22.52;11.52;;;;;;;24.84;58.81;101690.19;5113804;28;20378;-75
2023/10/02 12:13:44;;;;;;;21.05;10.77;;;;;;;24.62;60.06;101699.47;5113114;28;20428;-74
2023/10/02 12:16:12;;;;;;;24.58;10.90;;;;;;;24.79;60.28;101698.44;5112970;28;20032;-75
2023/10/02 12:18:38;;;;;;;22.55;11.13;;;;;;;24.90;59.41;101697.34;5114117;28;20031;-75
2023/10/02 12:21:11;;;;;;;22.08;10.77;;;;;;;24.70;60.24;101697.28;5094047;28;20522;-75
2023/10/02 12:23:40;;;;;;;20.37;10.90;;;;;;;24.81;59.97;101704.50;5073837;28;1072208;-75
2023/10/02 12:26:20;;;;;;;19.38;10.95;;;;;;;24.98;58.95;101696.81;5113492;28;20515;-75
2023/10/02 12:28:48;;;;;;;21.38;10.50;;;;;;;25.02;58.37;101696.25;5112160;28;20036;-75